Time;durP1;ratioP1;P1;durP2;ratioP2;P2;SDS_P1;SDS_P2;PMS_P1;PMS_P2;Temp;Humidity;BMP_temperature;BMP_pressure;BME280_temperature;BME280_humidity;BME280_pressure;Samples;Min_cycle;Max_cycle;Signal;HPM_P1;HPM_P2
2021/07/06 00:01:48;;;;;;;11.07;7.55;;;23.20;94.20;;;;;;5056871;28;20383;-83
2021/07/06 00:04:13;;;;;;;9.65;7.07;;;23.30;94.30;;;;;;5074222;28;20029;-83
2021/07/06 00:06:39;;;;;;;11.25;6.82;;;23.20;94.10;;;;;;5074328;28;20103;-83
2021/07/06 00:09:05;;;;;;;8.65;6.75;;;23.20;94.00;;;;;;5074057;28;20029;-83
2021/07/06 00:11:31;;;;;;;7.78;7.00;;;23.20;94.20;;;;;;5074058;28;20047;-83
2021/07/06 00:13:56;;;;;;;7.68;6.88;;;23.10;94.50;;;;;;5073984;28;20115;-83
2021/07/06 00:16:22;;;;;;;11.40;6.93;;;23.10;94.20;;;;;;5073933;28;20471;-83
2021/07/06 00:18:48;;;;;;;9.35;7.10;;;23.20;94.30;;;;;;5074118;28;20020;-83
2021/07/06 00:21:14;;;;;;;12.13;7.70;;;23.10;94.10;;;;;;5055995;28;20024;-83
2021/07/06 00:23:40;;;;;;;7.63;6.88;;;23.20;94.10;;;;;;5073937;28;20031;-83
2021/07/06 00:26:06;;;;;;;8.00;7.22;;;23.20;94.00;;;;;;5073352;28;20096;-81
2021/07/06 00:28:32;;;;;;;7.30;6.60;;;23.10;94.00;;;;;;5073063;28;20091;-81
2021/07/06 00:30:59;;;;;;;8.18;6.75;;;23.20;94.20;;;;;;5072972;28;20024;-81
2021/07/06 00:33:29;;;;;;;11.52;8.48;;;23.10;93.90;;;;;;5072852;28;20059;-81
2021/07/06 00:35:58;;;;;;;11.13;7.22;;;23.10;94.00;;;;;;5072997;28;20043;-80
2021/07/06 00:38:27;;;;;;;10.55;7.07;;;23.10;93.90;;;;;;5072726;28;20036;-81
2021/07/06 00:40:55;;;;;;;13.48;7.75;;;23.10;93.80;;;;;;5072813;28;20028;-82
2021/07/06 00:43:21;;;;;;;7.53;6.72;;;23.10;93.90;;;;;;5072990;28;20067;-81
2021/07/06 00:45:47;;;;;;;10.45;7.57;;;23.10;94.00;;;;;;5073061;28;20021;-81
2021/07/06 00:48:13;;;;;;;9.32;7.95;;;23.10;93.80;;;;;;5072799;28;20029;-81
2021/07/06 00:50:39;;;;;;;10.93;7.53;;;23.10;93.80;;;;;;5073195;28;20383;-81
2021/07/06 00:53:04;;;;;;;9.85;8.00;;;23.10;93.90;;;;;;5072740;28;20036;-81
2021/07/06 00:55:31;;;;;;;10.15;8.40;;;23.10;94.20;;;;;;5072395;28;20076;-82
2021/07/06 00:57:59;;;;;;;10.68;8.38;;;23.10;93.90;;;;;;5073467;28;20028;-82
2021/07/06 01:00:26;;;;;;;11.93;9.00;;;23.10;93.90;;;;;;5073226;28;20029;-82
2021/07/06 01:02:52;;;;;;;12.25;9.30;;;23.10;93.90;;;;;;5072647;28;20082;-82
2021/07/06 01:05:24;;;;;;;9.05;8.15;;;23.10;93.90;;;;;;5073559;28;20356;-82
2021/07/06 01:07:50;;;;;;;12.52;8.23;;;23.20;93.60;;;;;;5075304;28;20054;-82
2021/07/06 01:10:17;;;;;;;10.57;8.02;;;23.10;93.60;;;;;;5074670;28;20459;-82
2021/07/06 01:12:44;;;;;;;11.00;8.25;;;23.20;93.40;;;;;;5073421;28;20032;-82
2021/07/06 01:15:22;;;;;;;10.68;8.30;;;23.10;93.30;;;;;;5073433;28;20115;-82
2021/07/06 01:18:08;;;;;;;12.30;8.70;;;23.10;93.20;;;;;;5073454;28;20021;-82
2021/07/06 01:20:37;;;;;;;9.95;8.20;;;23.10;93.30;;;;;;5073176;28;20430;-82
2021/07/06 01:23:05;;;;;;;11.43;8.77;;;23.10;93.00;;;;;;5073353;28;20032;-82
2021/07/06 01:25:32;;;;;;;11.15;8.02;;;23.00;92.90;;;;;;5073504;28;20085;-84
2021/07/06 01:27:58;;;;;;;10.88;8.77;;;23.00;92.90;;;;;;5073903;28;20020;-84
2021/07/06 01:30:24;;;;;;;9.60;8.55;;;23.00;93.10;;;;;;5055719;28;20021;-83
2021/07/06 01:32:50;;;;;;;14.43;8.25;;;23.00;93.20;;;;;;5073563;28;20025;-83
2021/07/06 01:35:17;;;;;;;9.48;7.85;;;23.00;93.10;;;;;;5073322;28;20028;-83
2021/07/06 01:37:56;;;;;;;16.10;8.13;;;23.00;93.00;;;;;;5073242;28;20103;-83
2021/07/06 01:40:24;;;;;;;11.07;7.93;;;23.00;93.10;;;;;;5074425;28;20021;-83
2021/07/06 01:42:50;;;;;;;9.90;7.50;;;23.10;93.10;;;;;;5076032;28;20032;-83
2021/07/06 01:45:19;;;;;;;10.77;7.82;;;23.10;93.00;;;;;;5076565;28;20025;-83
2021/07/06 01:47:50;;;;;;;11.40;7.63;;;23.10;92.90;;;;;;5055508;28;20339;-82
2021/07/06 01:50:19;;;;;;;10.98;8.00;;;23.10;92.90;;;;;;5072795;28;20032;-82
2021/07/06 01:52:48;;;;;;;12.75;7.60;;;23.10;92.70;;;;;;5072715;28;20025;-82
2021/07/06 01:55:17;;;;;;;10.95;9.13;;;23.00;92.40;;;;;;5073116;28;20046;-83
2021/07/06 01:57:44;;;;;;;8.27;7.22;;;23.00;92.60;;;;;;5055678;28;20372;-83
2021/07/06 02:00:13;;;;;;;10.90;8.05;;;23.00;92.70;;;;;;5073086;28;20032;-83
2021/07/06 02:02:39;;;;;;;11.32;8.02;;;22.90;92.40;;;;;;5073152;28;20024;-83
2021/07/06 02:05:14;;;;;;;8.52;7.78;;;22.90;92.40;;;;;;5073230;28;20027;-83
2021/07/06 02:07:40;;;;;;;10.93;7.95;;;22.80;92.50;;;;;;5057406;28;20044;-83
2021/07/06 02:10:07;;;;;;;13.25;8.35;;;22.80;92.60;;;;;;5058812;28;20021;-83
2021/07/06 02:12:34;;;;;;;11.18;8.40;;;22.80;92.60;;;;;;5076630;28;20036;-84
2021/07/06 02:15:00;;;;;;;9.60;8.57;;;22.80;92.50;;;;;;5076793;28;20075;-83
2021/07/06 02:17:27;;;;;;;10.40;7.97;;;22.80;92.80;;;;;;5058666;28;20052;-84
2021/07/06 02:19:54;;;;;;;10.55;8.23;;;22.90;92.80;;;;;;5076841;28;20502;-84
2021/07/06 02:22:19;;;;;;;10.52;7.43;;;23.00;92.90;;;;;;5076742;28;20021;-83
2021/07/06 02:24:45;;;;;;;11.55;8.40;;;23.10;92.80;;;;;;5076787;28;20466;-83
2021/07/06 02:27:11;;;;;;;14.40;8.00;;;23.20;92.50;;;;;;5076636;28;20074;-83
2021/07/06 02:29:37;;;;;;;9.43;7.75;;;23.30;92.30;;;;;;5076809;28;20042;-83
2021/07/06 02:32:03;;;;;;;10.40;7.60;;;23.50;92.20;;;;;;5076554;28;20861;-83
2021/07/06 02:34:29;;;;;;;11.60;8.10;;;23.60;91.70;;;;;;5076513;28;20046;-83
2021/07/06 02:36:55;;;;;;;10.07;7.93;;;23.60;90.90;;;;;;5076582;28;20017;-83
2021/07/06 02:39:21;;;;;;;10.13;7.80;;;23.50;90.70;;;;;;5076427;28;20023;-83
2021/07/06 02:41:47;;;;;;;10.25;7.40;;;23.40;90.50;;;;;;5076454;28;20509;-83
2021/07/06 02:44:13;;;;;;;10.82;8.35;;;23.20;90.50;;;;;;5076280;28;20029;-83
2021/07/06 02:46:39;;;;;;;10.30;7.93;;;23.10;90.80;;;;;;5076401;28;20429;-83
2021/07/06 02:49:05;;;;;;;13.77;8.40;;;23.10;91.00;;;;;;5076591;28;20024;-83
2021/07/06 02:51:31;;;;;;;12.30;8.43;;;23.00;91.10;;;;;;5076176;28;20451;-83
2021/07/06 02:53:56;;;;;;;11.02;9.52;;;23.00;91.50;;;;;;5076112;28;20094;-83
2021/07/06 02:56:22;;;;;;;10.27;7.60;;;23.00;91.70;;;;;;5076025;28;20028;-83
2021/07/06 02:58:48;;;;;;;12.45;8.45;;;22.90;91.40;;;;;;5076196;28;20027;-83
2021/07/06 03:01:13;;;;;;;11.15;9.07;;;22.90;91.80;;;;;;5075807;28;20025;-83
2021/07/06 03:03:39;;;;;;;13.35;8.85;;;22.90;91.80;;;;;;5075780;28;20028;-83
2021/07/06 03:06:05;;;;;;;10.45;8.55;;;23.00;91.90;;;;;;5076262;28;20052;-83
2021/07/06 03:08:31;;;;;;;10.02;8.18;;;22.90;91.60;;;;;;5075879;28;20054;-82
2021/07/06 03:10:57;;;;;;;10.55;8.52;;;22.90;91.90;;;;;;5076786;28;20028;-82
2021/07/06 03:13:23;;;;;;;9.90;8.82;;;23.00;92.00;;;;;;5075541;28;20487;-83
2021/07/06 03:15:49;;;;;;;10.00;8.77;;;22.90;91.80;;;;;;5076076;28;20090;-83
2021/07/06 03:18:15;;;;;;;12.15;9.02;;;22.90;91.80;;;;;;5074819;28;20095;-83
2021/07/06 03:20:41;;;;;;;13.07;9.77;;;22.90;92.00;;;;;;5076065;28;20055;-83
2021/07/06 03:23:07;;;;;;;11.15;9.27;;;22.90;92.10;;;;;;5057575;28;20027;-83
2021/07/06 03:25:33;;;;;;;11.00;9.43;;;22.90;92.00;;;;;;5075366;28;20090;-82
2021/07/06 03:28:00;;;;;;;11.90;9.57;;;22.90;91.90;;;;;;5057410;28;20032;-83
2021/07/06 03:30:32;;;;;;;12.45;9.20;;;23.00;91.80;;;;;;5075389;28;20081;-82
2021/07/06 03:32:59;;;;;;;10.07;9.07;;;22.90;91.40;;;;;;5075351;28;20028;-83
2021/07/06 03:35:26;;;;;;;10.82;9.27;;;22.90;91.80;;;;;;5075234;28;20459;-85
2021/07/06 03:37:52;;;;;;;13.68;9.77;;;22.80;92.00;;;;;;5057206;28;20412;-83
2021/07/06 03:40:19;;;;;;;13.88;10.30;;;22.80;91.80;;;;;;5075198;28;20020;-84
2021/07/06 03:42:44;;;;;;;14.18;9.60;;;22.80;91.60;;;;;;5075248;28;20057;-84
2021/07/06 03:45:12;;;;;;;11.85;10.00;;;22.80;92.10;;;;;;5075333;28;20483;-84
2021/07/06 03:47:38;;;;;;;11.25;10.05;;;22.80;92.20;;;;;;5074986;28;20050;-84
2021/07/06 03:50:07;;;;;;;16.83;11.18;;;22.80;91.90;;;;;;5074501;28;20027;-86
2021/07/06 03:52:33;;;;;;;14.38;10.25;;;22.80;92.00;;;;;;5075337;28;20052;-83
2021/07/06 03:54:58;;;;;;;13.60;10.10;;;22.80;92.40;;;;;;5074948;28;20082;-83
2021/07/06 03:57:30;;;;;;;13.68;10.18;;;22.80;92.30;;;;;;5061154;28;20020;-83
2021/07/06 04:00:01;;;;;;;16.90;9.55;;;22.90;92.20;;;;;;5058136;28;20115;-82
2021/07/06 04:02:26;;;;;;;12.32;10.45;;;22.90;91.80;;;;;;5056725;28;20029;-83
2021/07/06 04:04:52;;;;;;;13.32;10.10;;;22.90;91.90;;;;;;5075040;28;20016;-83
2021/07/06 04:07:18;;;;;;;13.75;10.43;;;22.90;92.10;;;;;;5074522;28;20483;-83
2021/07/06 04:09:45;;;;;;;11.43;9.65;;;22.90;91.70;;;;;;5074531;28;20029;-83
2021/07/06 04:12:11;;;;;;;13.23;9.88;;;22.90;92.00;;;;;;5074524;28;20025;-83
2021/07/06 04:14:37;;;;;;;11.18;10.07;;;23.00;92.10;;;;;;5074103;28;20098;-83
2021/07/06 04:17:03;;;;;;;11.35;9.90;;;23.20;92.20;;;;;;5074786;28;20204;-83
2021/07/06 04:19:29;;;;;;;12.27;10.25;;;23.20;91.80;;;;;;5074443;28;20078;-84
2021/07/06 04:21:55;;;;;;;10.57;9.23;;;23.30;91.60;;;;;;5074312;28;20024;-83
2021/07/06 04:24:21;;;;;;;12.57;9.93;;;23.30;91.60;;;;;;5055327;28;20132;-83
2021/07/06 04:26:46;;;;;;;11.25;10.07;;;23.30;91.50;;;;;;5073253;28;20074;-83
2021/07/06 04:29:12;;;;;;;11.63;9.57;;;23.40;91.40;;;;;;5073774;28;20104;-84
2021/07/06 04:31:38;;;;;;;14.63;10.10;;;23.50;91.60;;;;;;5073773;28;20074;-84
2021/07/06 04:34:04;;;;;;;12.82;10.38;;;23.60;91.20;;;;;;5073608;28;20029;-84
2021/07/06 04:36:30;;;;;;;13.45;9.80;;;23.60;90.50;;;;;;5074158;28;20028;-86
2021/07/06 04:38:56;;;;;;;13.18;10.13;;;23.50;90.50;;;;;;5055843;28;20031;-86
2021/07/06 04:41:22;;;;;;;13.95;10.73;;;23.50;90.50;;;;;;5055482;28;20025;-85
2021/07/06 04:43:48;;;;;;;14.90;10.85;;;23.40;90.40;;;;;;5074057;28;20482;-86
2021/07/06 04:46:13;;;;;;;14.65;10.10;;;23.50;90.50;;;;;;5073978;28;20063;-85
2021/07/06 04:48:39;;;;;;;11.30;10.20;;;23.50;90.50;;;;;;5074041;28;20360;-85
2021/07/06 04:51:07;;;;;;;12.98;10.00;;;23.50;90.40;;;;;;5073566;28;20040;-84
2021/07/06 04:53:34;;;;;;;15.10;10.15;;;23.60;90.50;;;;;;5055309;28;20039;-83
2021/07/06 04:56:01;;;;;;;11.80;9.88;;;23.60;90.70;;;;;;5073262;28;20025;-85
2021/07/06 04:58:28;;;;;;;12.45;9.90;;;23.80;90.90;;;;;;5072387;28;20021;-86
2021/07/06 05:00:54;;;;;;;12.05;9.48;;;24.10;90.20;;;;;;5070435;28;20021;-86
2021/07/06 05:03:20;;;;;;;13.55;9.75;;;24.10;89.20;;;;;;5049362;28;20043;-86
2021/07/06 05:05:45;;;;;;;12.43;10.40;;;24.30;90.00;;;;;;5054330;28;20482;-87
2021/07/06 05:08:11;;;;;;;10.75;8.82;;;24.70;89.70;;;;;;5072534;28;20074;-86
2021/07/06 05:10:38;;;;;;;12.27;9.20;;;25.20;89.50;;;;;;5073097;28;20028;-85
2021/07/06 05:13:04;;;;;;;13.85;9.98;;;26.20;88.30;;;;;;5072416;28;20851;-87
2021/07/06 05:15:30;;;;;;;11.85;8.75;;;27.40;83.50;;;;;;5072480;28;20030;-85
2021/07/06 05:17:56;;;;;;;12.57;8.93;;;28.70;80.30;;;;;;5072846;28;20425;-85
2021/07/06 05:20:22;;;;;;;11.02;8.10;;;30.00;76.70;;;;;;5072871;28;20061;-84
2021/07/06 05:22:47;;;;;;;9.50;8.32;;;31.10;74.30;;;;;;5072160;28;20024;-86
2021/07/06 05:25:14;;;;;;;11.18;8.82;;;32.00;70.50;;;;;;5073975;28;20020;-86
2021/07/06 05:27:40;;;;;;;13.57;9.05;;;32.70;67.00;;;;;;5073591;28;20081;-85
2021/07/06 05:30:07;;;;;;;11.07;8.30;;;33.20;63.50;;;;;;5073555;28;20103;-85
2021/07/06 05:32:37;;;;;;;12.60;8.77;;;32.90;61.80;;;;;;5075014;28;20028;-86
2021/07/06 05:35:10;;;;;;;13.70;8.88;;;33.20;61.70;;;;;;5073839;28;20028;-84
2021/07/06 05:37:37;;;;;;;10.63;9.52;;;33.60;59.60;;;;;;5055679;28;20032;-86
2021/07/06 05:40:08;;;;;;;12.70;8.90;;;33.30;59.00;;;;;;5075034;28;20093;-89
2021/07/06 05:42:35;;;;;;;9.68;8.77;;;33.40;60.10;;;;;;5058108;28;20029;-87
2021/07/06 05:45:01;;;;;;;12.10;8.73;;;34.40;59.60;;;;;;5076928;28;20032;-82
2021/07/06 05:47:27;;;;;;;9.48;8.57;;;34.90;56.60;;;;;;5076798;28;20032;-83
2021/07/06 05:49:53;;;;;;;10.25;9.25;;;35.10;56.00;;;;;;5076134;28;20039;-83
2021/07/06 05:52:19;;;;;;;10.50;9.43;;;35.40;55.40;;;;;;5076326;28;20100;-85
2021/07/06 05:54:44;;;;;;;10.02;8.98;;;35.60;54.40;;;;;;5077204;28;20068;-84
2021/07/06 05:57:10;;;;;;;10.18;9.18;;;35.90;54.10;;;;;;5076565;28;20028;-82
2021/07/06 05:59:36;;;;;;;12.30;8.38;;;36.50;54.30;;;;;;5075955;28;20111;-80
2021/07/06 06:02:01;;;;;;;12.20;9.05;;;37.30;53.40;;;;;;5075773;28;20100;-81
2021/07/06 06:04:27;;;;;;;15.20;9.68;;;38.00;52.00;;;;;;5075438;28;20098;-80
2021/07/06 06:06:53;;;;;;;10.50;9.43;;;38.40;50.80;;;;;;5075546;28;20037;-81
2021/07/06 06:09:19;;;;;;;12.20;10.10;;;38.70;50.50;;;;;;5075144;28;20064;-81
2021/07/06 06:11:45;;;;;;;13.52;9.18;;;39.30;49.70;;;;;;5058378;28;20060;-81
2021/07/06 06:14:11;;;;;;;11.90;9.68;;;39.80;48.90;;;;;;5076190;28;20028;-81
2021/07/06 06:16:37;;;;;;;12.00;10.52;;;40.00;48.50;;;;;;5076089;28;20017;-80
2021/07/06 06:19:03;;;;;;;16.38;10.07;;;40.50;48.10;;;;;;5076050;28;20386;-81
2021/07/06 06:21:32;;;;;;;14.52;9.80;;;40.80;47.10;;;;;;5075950;28;20021;-82
2021/07/06 06:23:58;;;;;;;11.25;10.13;;;40.80;46.40;;;;;;5076014;28;20043;-82
2021/07/06 06:26:26;;;;;;;11.93;10.65;;;40.20;45.80;;;;;;5075809;28;20056;-82
2021/07/06 06:28:52;;;;;;;15.48;10.57;;;38.90;46.50;;;;;;5075891;28;20033;-82
2021/07/06 06:31:18;;;;;;;14.45;10.90;;;37.70;48.10;;;;;;5057703;28;20028;-81
2021/07/06 06:33:44;;;;;;;15.40;11.52;;;36.90;49.20;;;;;;5075330;28;20033;-82
2021/07/06 06:36:11;;;;;;;12.70;11.15;;;36.10;50.40;;;;;;5057673;28;20024;-82
2021/07/06 06:38:36;;;;;;;13.18;11.27;;;35.30;51.70;;;;;;5075139;28;20013;-81
2021/07/06 06:41:02;;;;;;;15.90;11.15;;;34.80;52.60;;;;;;5056859;28;20104;-80
2021/07/06 06:43:28;;;;;;;16.42;10.45;;;34.20;53.50;;;;;;5074879;28;20029;-82
2021/07/06 06:45:54;;;;;;;14.27;10.45;;;33.70;54.20;;;;;;5056752;28;20060;-82
2021/07/06 06:48:19;;;;;;;11.82;10.55;;;33.30;55.10;;;;;;5075155;28;20028;-81
2021/07/06 06:50:45;;;;;;;16.25;11.70;;;33.10;55.60;;;;;;5075481;28;20028;-82
2021/07/06 06:53:11;;;;;;;12.88;10.40;;;33.00;56.50;;;;;;5074752;28;20426;-82
2021/07/06 06:55:37;;;;;;;13.45;11.40;;;33.40;57.00;;;;;;5074578;28;20138;-81
2021/07/06 06:58:02;;;;;;;17.77;11.63;;;33.60;56.20;;;;;;5074638;28;20044;-81
2021/07/06 07:00:30;;;;;;;16.65;11.60;;;33.60;55.90;;;;;;5075108;28;20020;-82
2021/07/06 07:02:56;;;;;;;11.82;10.35;;;33.80;56.00;;;;;;5073944;28;20044;-79
2021/07/06 07:05:22;;;;;;;15.60;11.85;;;33.70;55.70;;;;;;5073632;28;20060;-80
2021/07/06 07:07:48;;;;;;;12.57;10.32;;;33.50;55.50;;;;;;5055257;28;20040;-80
2021/07/06 07:10:14;;;;;;;15.18;9.63;;;33.20;56.10;;;;;;5074075;28;20060;-82
2021/07/06 07:12:41;;;;;;;12.35;10.65;;;33.00;56.40;;;;;;5055765;28;20080;-80
2021/07/06 07:15:09;;;;;;;15.70;9.80;;;32.90;56.50;;;;;;5073826;28;20032;-80
2021/07/06 07:17:35;;;;;;;11.35;10.10;;;32.70;57.00;;;;;;5073714;28;20045;-82
2021/07/06 07:20:03;;;;;;;15.10;9.80;;;32.90;57.40;;;;;;5074558;28;20056;-82
2021/07/06 07:22:29;;;;;;;13.63;11.25;;;33.60;57.40;;;;;;5073858;28;20055;-80
2021/07/06 07:24:54;;;;;;;14.20;10.82;;;34.50;56.00;;;;;;5073777;28;20458;-81
2021/07/06 07:27:20;;;;;;;14.23;9.82;;;35.20;55.30;;;;;;5073333;28;20036;-81
2021/07/06 07:29:46;;;;;;;12.00;10.00;;;36.00;54.40;;;;;;5074001;28;20372;-83
2021/07/06 07:32:12;;;;;;;13.27;10.07;;;36.80;53.10;;;;;;5073729;28;20028;-81
2021/07/06 07:34:38;;;;;;;10.90;9.80;;;37.60;52.10;;;;;;5073094;28;20048;-80
2021/07/06 07:37:04;;;;;;;13.23;9.88;;;38.30;50.80;;;;;;5073386;28;20473;-81
2021/07/06 07:39:32;;;;;;;12.18;9.70;;;38.80;49.50;;;;;;5073173;28;20028;-80
2021/07/06 07:41:58;;;;;;;14.55;9.65;;;39.20;48.60;;;;;;5072739;28;20023;-81
2021/07/06 07:44:23;;;;;;;14.93;9.25;;;39.30;48.30;;;;;;5072960;28;20024;-81
2021/07/06 07:46:49;;;;;;;9.38;8.20;;;39.50;48.00;;;;;;5073051;28;20101;-81
2021/07/06 07:49:15;;;;;;;13.57;9.32;;;39.60;47.70;;;;;;5073111;28;20114;-81
2021/07/06 07:51:41;;;;;;;12.05;8.98;;;39.80;47.60;;;;;;5073043;28;20103;-80
2021/07/06 07:54:07;;;;;;;17.02;10.15;;;39.80;47.40;;;;;;5054445;28;20049;-82
2021/07/06 07:56:32;;;;;;;22.80;9.93;;;39.70;47.10;;;;;;5072986;28;20028;-81
2021/07/06 07:58:58;;;;;;;14.05;9.90;;;39.60;47.20;;;;;;5072598;28;20086;-80
2021/07/06 08:01:24;;;;;;;16.67;9.82;;;39.40;47.40;;;;;;5072771;28;20139;-80
2021/07/06 08:03:49;;;;;;;15.40;9.95;;;39.40;47.30;;;;;;5054692;28;20040;-81
2021/07/06 08:06:15;;;;;;;11.50;9.05;;;39.40;47.50;;;;;;5054339;28;20115;-81
2021/07/06 08:08:41;;;;;;;16.15;9.25;;;39.30;47.60;;;;;;5072684;28;20028;-81
2021/07/06 08:11:07;;;;;;;13.02;9.20;;;39.10;47.60;;;;;;5073681;28;20116;-81
2021/07/06 08:13:33;;;;;;;11.27;7.97;;;38.70;47.50;;;;;;5054586;28;20036;-81
2021/07/06 08:15:59;;;;;;;11.65;8.00;;;38.50;47.90;;;;;;5072469;28;20020;-82
2021/07/06 08:18:25;;;;;;;10.80;8.32;;;38.30;48.70;;;;;;5072618;28;20060;-81
2021/07/06 08:20:51;;;;;;;11.82;7.55;;;38.00;48.30;;;;;;5072309;28;20059;-81
2021/07/06 08:23:17;;;;;;;9.00;7.50;;;37.70;48.70;;;;;;5072460;28;20104;-80
2021/07/06 08:25:43;;;;;;;9.55;7.72;;;37.40;49.00;;;;;;5072783;28;20016;-84
2021/07/06 08:28:09;;;;;;;10.63;7.72;;;37.20;49.50;;;;;;5073399;28;20494;-84
2021/07/06 08:30:35;;;;;;;12.63;8.15;;;37.00;49.60;;;;;;5072749;28;20121;-82
2021/07/06 08:33:00;;;;;;;12.57;7.47;;;36.30;49.80;;;;;;5071178;28;20096;-81
2021/07/06 08:35:26;;;;;;;11.27;7.15;;;35.90;51.00;;;;;;5053701;28;20108;-80
2021/07/06 08:37:52;;;;;;;10.98;8.07;;;35.90;51.50;;;;;;5072308;28;20394;-81
2021/07/06 08:40:18;;;;;;;8.40;7.53;;;35.90;51.60;;;;;;5071764;28;20400;-81
2021/07/06 08:42:44;;;;;;;14.10;7.63;;;35.80;51.20;;;;;;5074604;28;20034;-81
2021/07/06 08:45:11;;;;;;;15.80;8.00;;;35.20;51.50;;;;;;5071548;28;20482;-82
2021/07/06 08:47:38;;;;;;;11.90;6.90;;;34.80;51.50;;;;;;5071518;28;20024;-81
2021/07/06 08:50:06;;;;;;;10.85;6.75;;;34.40;52.40;;;;;;5071920;28;20522;-82
2021/07/06 08:52:36;;;;;;;10.70;6.55;;;34.30;53.10;;;;;;5071760;28;20024;-82
2021/07/06 08:55:02;;;;;;;10.90;6.53;;;34.20;52.50;;;;;;5053537;28;20439;-83
2021/07/06 08:57:27;;;;;;;15.77;7.45;;;33.50;52.90;;;;;;5072603;28;20371;-83
2021/07/06 08:59:53;;;;;;;11.57;6.57;;;33.30;54.00;;;;;;5072230;28;20036;-83
2021/07/06 09:02:22;;;;;;;11.73;6.90;;;33.50;54.30;;;;;;5071358;28;20025;-81
2021/07/06 09:04:51;;;;;;;9.48;6.68;;;33.30;53.80;;;;;;5071776;28;20020;-80
2021/07/06 09:07:17;;;;;;;11.93;7.10;;;33.30;54.30;;;;;;5071427;28;20024;-81
2021/07/06 09:09:44;;;;;;;7.57;6.20;;;33.40;54.40;;;;;;5070964;28;20035;-79
2021/07/06 09:12:12;;;;;;;11.10;6.10;;;33.60;54.50;;;;;;5071217;28;20375;-80
2021/07/06 09:14:41;;;;;;;10.10;6.45;;;33.60;53.50;;;;;;5071280;28;20033;-81
2021/07/06 09:17:18;;;;;;;9.18;6.20;;;33.40;54.00;;;;;;5072714;28;20033;-84
2021/07/06 09:19:49;;;;;;;10.07;6.93;;;33.50;54.30;;;;;;5074495;28;20024;-86
2021/07/06 09:22:30;;;;;;;11.75;6.60;;;33.50;54.20;;;;;;5054602;28;20056;-82
2021/07/06 09:25:03;;;;;;;8.25;6.82;;;33.70;54.10;;;;;;5071799;28;20020;-85
2021/07/06 09:27:34;;;;;;;8.23;6.60;;;33.50;53.60;;;;;;5071905;28;20024;-85
2021/07/06 09:30:08;;;;;;;8.20;6.25;;;33.10;53.80;;;;;;5072498;28;20459;-82
2021/07/06 09:32:36;;;;;;;8.85;6.50;;;32.80;54.90;;;;;;5072732;28;20051;-85
2021/07/06 09:35:26;;;;;;;8.43;6.03;;;32.80;55.10;;;;;;5073511;28;20024;-82
2021/07/06 09:37:51;;;;;;;13.98;9.10;;;32.70;55.70;;;;;;5072442;28;20028;-86
2021/07/06 09:40:34;;;;;;;9.52;5.55;;;32.80;55.90;;;;;;5072474;28;20178;-84
2021/07/06 09:43:23;;;;;;;8.50;5.35;;;32.90;55.70;;;;;;5053816;28;20025;-83
2021/07/06 09:46:08;;;;;;;6.95;6.18;;;33.10;55.30;;;;;;5057555;28;20124;-83
2021/07/06 09:48:39;;;;;;;10.27;5.40;;;32.90;55.10;;;;;;5087627;28;20083;-83
2021/07/06 09:51:29;;;;;;;9.63;5.68;;;32.80;55.30;;;;;;5077606;28;20049;-83
2021/07/06 09:53:55;;;;;;;6.80;5.72;;;32.80;55.80;;;;;;5072764;28;20037;-84
2021/07/06 09:56:39;;;;;;;8.43;5.93;;;32.60;55.20;;;;;;5073395;28;20073;-84
2021/07/06 09:59:05;;;;;;;7.25;5.35;;;32.20;56.10;;;;;;5073626;28;20024;-84
2021/07/06 10:01:31;;;;;;;9.88;5.57;;;32.20;56.70;;;;;;5054853;28;20352;-83
2021/07/06 10:03:58;;;;;;;9.75;5.78;;;32.20;56.80;;;;;;5073431;28;20039;-86
2021/07/06 10:06:26;;;;;;;10.45;6.10;;;32.20;56.60;;;;;;5074115;28;20036;-86
2021/07/06 10:08:53;;;;;;;6.18;5.38;;;31.90;56.80;;;;;;5056194;28;20028;-85
2021/07/06 10:11:21;;;;;;;7.55;5.47;;;31.60;57.50;;;;;;5057136;28;20384;-87
2021/07/06 10:13:47;;;;;;;8.48;6.00;;;31.60;58.00;;;;;;5075590;28;20371;-88
2021/07/06 10:16:16;;;;;;;6.68;5.47;;;31.70;57.80;;;;;;5072435;28;20020;-83
2021/07/06 10:18:43;;;;;;;8.40;5.50;;;31.80;57.80;;;;;;5074738;28;20021;-86
2021/07/06 10:21:33;;;;;;;10.10;5.93;;;31.80;57.60;;;;;;5074699;28;20112;-87
2021/07/06 10:24:01;;;;;;;6.97;4.60;;;31.80;57.40;;;;;;5072667;28;20488;-83
2021/07/06 10:26:29;;;;;;;8.95;4.60;;;31.60;57.30;;;;;;5073444;28;20028;-86
2021/07/06 10:28:58;;;;;;;9.90;4.20;;;31.50;57.10;;;;;;5058241;28;20058;-86
2021/07/06 10:31:26;;;;;;;6.47;4.57;;;31.40;56.80;;;;;;5078617;28;20379;-85
2021/07/06 10:33:55;;;;;;;6.78;4.20;;;31.20;57.00;;;;;;5059212;28;20463;-86
2021/07/06 10:36:39;;;;;;;7.93;4.00;;;31.10;56.40;;;;;;5059017;28;20033;-86
2021/07/06 10:39:06;;;;;;;7.07;4.70;;;30.80;57.10;;;;;;5078773;28;20016;-85
2021/07/06 10:41:35;;;;;;;4.85;3.75;;;30.80;58.10;;;;;;5076203;28;20074;-87
2021/07/06 10:44:03;;;;;;;5.95;3.90;;;30.80;57.30;;;;;;5076371;28;20104;-87
2021/07/06 10:46:37;;;;;;;5.47;3.83;;;30.80;57.40;;;;;;5076631;28;20016;-87
2021/07/06 10:49:15;;;;;;;5.88;4.00;;;30.60;56.90;;;;;;5059130;28;20236;-85
2021/07/06 10:51:41;;;;;;;6.68;3.90;;;30.50;57.50;;;;;;5076544;28;20048;-86
2021/07/06 10:54:17;;;;;;;8.60;4.70;;;30.50;57.80;;;;;;5076462;28;20141;-87
2021/07/06 10:56:43;;;;;;;8.20;4.18;;;30.40;58.50;;;;;;5075785;28;20024;-83
2021/07/06 10:59:33;;;;;;;6.20;4.00;;;30.50;59.00;;;;;;5075248;28;20021;-85
2021/07/06 11:02:13;;;;;;;15.00;5.38;;;30.60;58.40;;;;;;5071491;28;20035;-84
2021/07/06 11:07:06;;;;;;;4.97;3.75;;;30.60;58.60;;;;;;5076312;28;20024;-84
2021/07/06 11:09:33;;;;;;;5.20;4.78;;;30.50;58.10;;;;;;5057895;28;20471;-86
2021/07/06 11:12:22;;;;;;;5.60;3.92;;;30.40;58.40;;;;;;5057465;28;20399;-84
2021/07/06 11:14:56;;;;;;;6.32;4.63;;;30.40;58.60;;;;;;5075319;28;20075;-86
2021/07/06 11:17:40;;;;;;;8.15;4.38;;;30.50;58.70;;;;;;5076969;28;20059;-88
2021/07/06 11:20:11;;;;;;;6.18;4.32;;;30.70;58.60;;;;;;5058676;28;20023;-85
2021/07/06 11:22:47;;;;;;;11.65;3.78;;;30.70;58.20;;;;;;5077522;28;20399;-87
2021/07/06 11:25:36;;;;;;;8.60;4.57;;;30.80;57.80;;;;;;5076884;28;20456;-87
2021/07/06 11:28:06;;;;;;;9.40;4.60;;;30.60;57.50;;;;;;5048117;28;20037;-87
2021/07/06 11:30:49;;;;;;;4.60;4.20;;;30.60;57.90;;;;;;5057211;28;20027;-87
2021/07/06 11:33:23;;;;;;;5.95;4.22;;;30.90;57.80;;;;;;5058016;28;20122;-87
2021/07/06 11:35:57;;;;;;;4.85;3.83;;;31.10;57.30;;;;;;5076689;28;20021;-88
2021/07/06 11:38:29;;;;;;;7.05;4.85;;;31.20;57.40;;;;;;5076611;28;20352;-88
2021/07/06 11:40:59;;;;;;;9.95;6.50;;;31.40;57.60;;;;;;5073406;28;20024;-88
2021/07/06 11:43:29;;;;;;;11.15;5.57;;;31.40;57.30;;;;;;5076534;28;20479;-86
2021/07/06 11:45:56;;;;;;;5.15;4.22;;;31.40;57.40;;;;;;5058575;28;20028;-88
2021/07/06 11:48:36;;;;;;;9.82;4.32;;;31.40;57.20;;;;;;5090248;28;20021;-85
2021/07/06 18:00:05;;;;;;;7.30;6.43;;;24.90;85.50;;;;;;4878942;29;20032;-81
2021/07/06 18:05:15;;;;;;;10.40;6.43;;;24.80;85.50;;;;;;4914418;29;20075;-81
2021/07/06 18:07:41;;;;;;;6.72;6.13;;;24.80;85.50;;;;;;4937627;29;20051;-80
2021/07/06 18:10:07;;;;;;;9.35;5.95;;;24.80;85.60;;;;;;4937299;29;20028;-79
2021/07/06 18:12:33;;;;;;;7.57;6.00;;;24.70;85.50;;;;;;4937286;29;20393;-82
2021/07/06 18:14:58;;;;;;;9.18;6.75;;;24.70;85.60;;;;;;4937027;29;20036;-78
2021/07/06 18:17:24;;;;;;;6.95;6.18;;;24.60;85.80;;;;;;4937592;29;20107;-80
2021/07/06 18:19:49;;;;;;;10.88;6.55;;;24.60;85.80;;;;;;4937325;29;20072;-82
2021/07/06 18:22:15;;;;;;;10.15;5.90;;;24.60;85.60;;;;;;4937357;29;20530;-81
2021/07/06 18:24:42;;;;;;;10.15;5.95;;;24.50;85.30;;;;;;4936507;29;20028;-80
2021/07/06 18:27:08;;;;;;;6.43;5.82;;;24.50;85.40;;;;;;4937614;29;20023;-81
2021/07/06 18:29:33;;;;;;;8.25;5.85;;;24.50;85.30;;;;;;4920837;29;20059;-81
2021/07/06 18:31:59;;;;;;;9.15;5.72;;;24.50;85.10;;;;;;4939529;29;20098;-81
2021/07/06 18:34:25;;;;;;;5.63;5.07;;;24.40;85.20;;;;;;4938813;29;20047;-81
2021/07/06 18:36:51;;;;;;;8.30;4.90;;;24.50;85.10;;;;;;4919625;29;20024;-82
2021/07/06 18:39:17;;;;;;;6.90;5.25;;;24.50;85.10;;;;;;4919194;29;20031;-82
2021/07/06 18:41:43;;;;;;;6.60;4.60;;;24.50;84.70;;;;;;4936327;29;20027;-79
2021/07/06 18:44:15;;;;;;;6.40;4.20;;;24.40;82.50;;;;;;4936513;29;20044;-77
2021/07/06 18:46:42;;;;;;;5.57;4.43;;;24.40;81.40;;;;;;4919404;29;20476;-78
2021/07/06 18:49:08;;;;;;;7.05;4.60;;;24.40;80.60;;;;;;4935990;29;20064;-78
2021/07/06 18:51:33;;;;;;;7.80;4.72;;;24.40;80.30;;;;;;4935985;29;20035;-78
2021/07/06 18:53:59;;;;;;;7.85;4.60;;;24.40;80.30;;;;;;4935717;29;20040;-77
2021/07/06 18:56:25;;;;;;;8.10;5.20;;;24.30;80.30;;;;;;4936290;29;20067;-77